Latest Weather Observations for Melbourne Airport

IDV60901

Issued at 8:15 pm EST Wednesday 23 April 2014 (issued every 10 minutes, with the page automatically refreshed every 10 minutes)

About weather observations | Map of Melbourne area stations | Latest observations for Melbourne area | Other Formats
Station Details ID: 086282 Name: MELBOURNE AIRPORT Lat: -37.67 Lon: 144.83 Height: 113.4 m
Data from the previous 72 hours. | See also: Recent months at Melbourne Airport
Date/Time
EST
Tmp

°C
App
Tmp
°C
Dew
Point
°C
Rel
Hum
%
Delta-T

°C
Wind Press
QNH
hPa
Press
MSL
hPa
Rain
since
9 am
mm
Dir
 
Spd
km/h
Gust
km/h
Spd
kts
Gust
kts
23/08:00pm 14.2 9.8 4.5 52 4.5 N 17 19 9 10 1013.7 1013.6 0.0
23/07:30pm 15.0 10.9 4.3 48 5.0 N 15 20 8 11 1013.8 - 0.0
23/07:00pm 15.3 11.7 5.0 50 4.9 N 13 17 7 9 1013.4 1013.3 0.0
23/06:30pm 15.7 12.0 6.5 54 4.5 N 15 20 8 11 1013.3 - 0.0
23/06:00pm 15.2 14.5 7.1 58 4.0 SW 0 0 0 0 1013.2 1013.1 0.0
23/05:30pm 16.7 16.5 9.0 60 4.0 CALM 0 0 0 0 1013.4 - 0.0
23/05:00pm 18.0 17.2 6.3 46 5.8 CALM 0 0 0 0 1013.4 1013.3 0.0
23/04:30pm 18.3 17.9 8.2 51 5.2 CALM 0 0 0 0 1013.5 - 0.0
23/04:00pm 17.8 16.5 7.8 52 5.1 WSW 4 9 2 5 1013.5 1013.4 0.0
23/03:30pm 18.2 17.8 8.1 51 5.2 CALM 0 0 0 0 1013.6 - 0.0
23/03:00pm 18.4 17.5 7.6 49 5.5 SW 2 7 1 4 1013.6 1013.5 0.0
23/02:30pm 17.9 15.7 7.9 52 5.1 W 9 13 5 7 1013.8 - 0.0
23/02:00pm 17.6 15.7 7.5 51 5.1 WSW 7 11 4 6 1014.1 1014.0 0.0
23/01:30pm 17.6 15.5 8.3 54 4.8 WSW 9 13 5 7 1014.5 - 0.0
23/01:00pm 17.0 15.0 8.7 58 4.3 SW 9 17 5 9 1015.0 1014.9 0.0
23/12:30pm 16.9 15.4 9.0 59 4.1 WNW 7 13 4 7 1015.6 - 0.0
23/12:00pm 17.1 15.8 9.3 60 4.1 WNW 6 11 3 6 1015.9 1015.8 0.0
23/11:30am 16.2 14.7 9.3 63 3.6 N 7 13 4 7 1016.2 - 0.0
23/11:00am 15.7 15.2 9.3 65 3.3 E 2 7 1 4 1016.6 1016.5 0.0
23/10:30am 15.2 13.3 9.0 66 3.2 SSW 9 13 5 7 1017.0 - 0.0
23/10:00am 14.5 12.2 9.0 69 2.8 SW 11 15 6 8 1017.1 1017.0 0.0
23/09:30am 14.0 12.0 10.0 77 2.1 WSW 11 17 6 9 1017.2 - 0.0
23/09:00am 13.4 11.4 10.1 80 1.7 W 11 15 6 8 1017.4 1017.3 3.0
23/08:30am 12.5 11.3 9.4 81 1.6 NW 6 7 3 4 1017.0 - 3.0
23/08:00am 11.6 10.4 9.4 86 1.1 NNW 6 7 3 4 1016.8 1016.7 3.0
23/07:30am 10.0 7.6 8.8 92 0.6 W 11 13 6 7 1016.7 - 3.0
23/07:00am 9.5 8.0 8.3 92 0.6 NNW 6 7 3 4 1016.4 1016.3 3.0
23/06:30am 10.2 8.5 8.4 89 0.9 NW 7 9 4 5 1016.4 - 3.0
23/06:00am 9.8 7.4 8.8 93 0.5 WNW 11 11 6 6 1016.6 1016.5 3.0
23/05:30am 9.9 8.0 9.1 95 0.4 WNW 9 11 5 6 1016.5 - 3.0
23/05:00am 9.7 7.5 9.3 97 0.2 W 11 11 6 6 1016.5 1016.4 3.0
23/04:30am 10.4 9.1 10.0 97 0.2 NNW 7 7 4 4 1016.3 - 3.0
23/04:00am 10.9 11.0 10.1 95 0.4 CALM 0 0 0 0 1016.2 1016.1 3.0
23/03:30am 11.4 11.6 10.6 95 0.4 CALM 0 0 0 0 1016.3 - 3.0
23/03:00am 11.4 11.6 10.6 95 0.4 CALM 0 0 0 0 1016.5 1016.4 3.0
23/02:30am 12.4 12.8 11.1 92 0.7 CALM 0 0 0 0 1016.6 - 3.0
23/02:00am 12.6 13.0 11.1 91 0.8 CALM 0 0 0 0 1016.9 1016.8 3.0
23/01:30am 12.6 11.9 11.3 92 0.7 SW 6 7 3 4 1017.1 - 3.0
23/01:00am 12.7 11.4 11.2 91 0.8 W 9 11 5 6 1017.3 1017.2 3.0
23/12:30am 12.6 12.0 11.7 94 0.5 W 6 7 3 4 1017.4 - 3.0
23/12:00am 12.9 12.3 11.8 93 0.6 SW 6 6 3 3 1017.5 1017.4 3.0
 
Date/Time
EST
Tmp

°C
App
Tmp
°C
Dew
Point
°C
Rel
Hum
%
Delta-T

°C
Wind Press
QNH
hPa
Press
MSL
hPa
Rain
since
9 am
mm
Dir
 
Spd
km/h
Gust
km/h
Spd
kts
Gust
kts
22/11:30pm 13.0 13.6 11.9 93 0.6 CALM 0 0 0 0 1017.6 - 3.0
22/11:00pm 13.1 12.3 11.8 92 0.7 SW 7 7 4 4 1017.8 1017.7 3.0
22/10:30pm 13.2 12.5 11.9 92 0.7 WSW 7 9 4 5 1018.2 - 3.0
22/10:00pm 13.3 12.5 11.6 89 0.9 SW 7 7 4 4 1018.2 1018.0 3.0
22/09:30pm 13.3 12.6 12.0 92 0.7 WSW 7 9 4 5 1018.1 - 3.0
22/09:00pm 13.4 12.2 11.7 89 0.9 SSW 9 11 5 6 1017.7 1017.6 3.0
22/08:30pm 13.5 12.0 11.8 89 0.9 S 11 13 6 7 1017.6 - 3.0
22/08:00pm 13.7 11.5 12.2 91 0.8 S 15 19 8 10 1017.4 1017.3 3.0
22/07:30pm 14.1 13.6 13.9 99 0.1 S 9 11 5 6 1017.2 - 2.6
22/07:00pm 14.3 13.0 13.6 96 0.4 SE 13 17 7 9 1016.8 1016.7 2.6
22/06:47pm 14.3 13.0 13.8 97 0.3 SSE 13 15 7 8 1016.7 - 2.2
22/06:37pm 14.3 13.1 13.9 97 0.2 S 13 17 7 9 1016.5 - 2.2
22/06:30pm 14.3 13.5 13.9 97 0.2 S 11 17 6 9 1016.4 - 2.2
22/06:00pm 14.3 13.7 13.4 94 0.5 NE 9 13 5 7 1016.1 1016.0 2.2
22/05:30pm 14.5 13.5 13.4 93 0.6 ENE 11 13 6 7 1015.7 - 2.2
22/05:00pm 14.7 14.6 13.4 92 0.7 ESE 6 7 3 4 1015.5 1015.4 2.0
22/04:30pm 14.8 13.9 13.6 92 0.7 S 11 13 6 7 1015.4 - 2.0
22/04:00pm 15.7 14.5 12.8 83 1.6 S 11 13 6 7 1015.1 1015.0 2.0
22/03:30pm 16.0 15.0 13.3 84 1.5 SSW 11 15 6 8 1015.0 - 2.0
22/03:00pm 17.0 15.8 11.5 70 3.0 NNW 9 13 5 7 1014.6 1014.5 2.0
22/02:30pm 16.7 14.8 11.8 73 2.7 N 13 20 7 11 1014.4 - 2.0
22/02:00pm 16.9 14.1 11.4 70 3.0 N 17 22 9 12 1014.3 1014.2 2.0
22/01:30pm 16.6 13.7 11.0 69 3.0 N 17 26 9 14 1014.3 - 1.8
22/01:00pm 16.3 12.3 10.3 67 3.2 N 22 30 12 16 1014.4 1014.3 1.8
22/12:30pm 15.6 11.2 10.3 70 2.8 N 24 28 13 15 1014.8 - 1.8
22/12:00pm 15.3 9.6 9.7 69 2.9 N 30 37 16 20 1014.9 1014.8 1.8
22/11:30am 15.2 9.2 10.1 71 2.7 N 32 44 17 24 1015.1 - 1.8
22/11:00am 13.8 6.8 9.9 77 2.0 N 37 48 20 26 1015.2 1015.1 1.8
22/10:30am 13.3 7.6 9.8 79 1.8 N 30 41 16 22 1015.4 - 1.8
22/10:27am 13.3 8.0 10.0 80 1.7 N 28 41 15 22 1015.3 - 1.8
22/10:13am 12.6 6.0 10.1 85 1.3 N 35 48 19 26 1015.4 - 1.8
22/10:00am 12.5 5.8 9.8 83 1.4 N 35 46 19 25 1016.0 1015.9 1.6
22/09:42am 13.0 6.2 9.1 77 2.0 N 35 44 19 24 1016.1 - 0.2
22/09:30am 13.4 6.1 8.9 74 2.3 N 37 50 20 27 1015.5 - 0.0
22/09:00am 12.8 6.6 9.3 79 1.8 N 32 39 17 21 1015.8 1015.7 1.4
22/08:30am 12.7 5.9 9.1 79 1.8 N 35 41 19 22 1015.9 - 1.0
22/08:00am 12.3 5.5 9.3 82 1.5 N 35 44 19 24 1015.9 1015.8 0.6
22/07:30am 13.4 6.3 8.0 70 2.7 N 35 46 19 25 1015.6 - 0.0
22/07:00am 14.8 6.5 5.9 55 4.3 N 39 52 21 28 1014.6 1014.5 0.0
22/06:30am 15.0 6.6 5.6 53 4.5 N 39 54 21 29 1014.8 - 0.0
22/06:00am 15.0 6.9 5.3 52 4.6 NNW 37 52 20 28 1015.1 1015.0 0.0
22/05:30am 15.2 6.7 5.1 51 4.8 N 39 54 21 29 1014.8 - 0.0
22/05:00am 15.3 5.9 4.7 49 5.0 N 43 63 23 34 1014.6 1014.5 0.0
22/04:30am 14.9 5.0 4.7 50 4.8 N 46 61 25 33 1013.2 - 0.0
22/04:00am 15.0 5.0 4.5 49 4.9 N 46 61 25 33 1013.0 1012.9 0.0
22/03:30am 15.1 5.6 4.7 50 4.9 N 44 57 24 31 1012.8 - 0.0
22/03:00am 15.3 4.6 4.4 48 5.1 N 50 59 27 32 1012.6 1012.5 0.0
22/02:30am 15.3 4.6 4.7 49 5.0 N 50 61 27 33 1012.9 - 0.0
22/02:00am 15.6 4.5 4.6 48 5.2 N 52 63 28 34 1013.1 1013.0 0.0
22/01:30am 15.7 4.1 4.1 46 5.4 N 54 69 29 37 1013.1 - 0.0
22/01:23am 15.8 4.3 4.3 46 5.4 N 54 72 29 39 1013.1 - 0.0
22/01:00am 16.0 4.4 4.0 44 5.6 N 54 69 29 37 1013.1 1013.0 0.0
22/12:38am 15.9 5.1 3.9 44 5.6 N 50 70 27 38 1013.4 - 0.0
22/12:30am 15.7 4.5 4.1 46 5.4 N 52 67 28 36 1013.5 - 0.0
22/12:00am 15.8 4.6 4.0 45 5.5 N 52 67 28 36 1013.8 1013.7 0.0
 
Date/Time
EST
Tmp

°C
App
Tmp
°C
Dew
Point
°C
Rel
Hum
%
Delta-T

°C
Wind Press
QNH
hPa
Press
MSL
hPa
Rain
since
9 am
mm
Dir
 
Spd
km/h
Gust
km/h
Spd
kts
Gust
kts
21/11:30pm 15.8 4.7 4.3 46 5.4 N 52 65 28 35 1014.1 - 0.0
21/11:00pm 15.7 4.6 4.4 47 5.3 N 52 67 28 36 1014.2 1014.1 0.0
21/10:30pm 15.8 4.3 4.3 46 5.4 N 54 69 29 37 1014.4 - 0.0
21/10:00pm 15.8 4.7 4.6 47 5.3 N 52 70 28 38 1014.5 1014.4 0.0
21/09:30pm 15.8 4.3 4.6 47 5.3 N 54 74 29 40 1014.5 - 0.0
21/09:00pm 15.9 4.5 4.7 47 5.3 N 54 70 29 38 1014.6 1014.5 0.0
21/08:30pm 16.0 5.0 4.8 47 5.3 N 52 70 28 38 1014.6 - 0.0
21/08:00pm 16.2 4.8 4.8 46 5.4 N 54 72 29 39 1014.6 1014.5 0.0
21/07:37pm 16.3 6.1 5.0 47 5.4 N 48 67 26 36 1014.7 - 0.0
21/07:30pm 16.3 5.7 5.0 47 5.4 N 50 65 27 35 1014.7 - 0.0
21/07:07pm 16.5 5.9 5.0 46 5.5 N 50 69 27 37 1014.8 - 0.0
21/07:00pm 16.5 5.5 5.0 46 5.5 N 52 69 28 37 1014.7 1014.6 0.0
21/06:30pm 16.4 5.8 5.1 47 5.4 N 50 67 27 36 1014.5 - 0.0
21/06:17pm 16.4 6.6 5.1 47 5.4 N 46 65 25 35 1014.6 - 0.0
21/06:00pm 16.6 6.0 5.1 46 5.5 N 50 61 27 33 1014.4 1014.3 0.0
21/05:30pm 17.1 6.9 5.0 44 5.8 N 48 67 26 36 1014.0 - 0.0
21/05:09pm 17.6 7.3 4.9 43 6.1 N 48 67 26 36 1013.8 - 0.0
21/05:00pm 17.9 6.8 4.5 41 6.4 N 52 67 28 36 1013.7 1013.6 0.0
21/04:49pm 18.1 5.7 4.5 40 6.5 N 59 72 32 39 1013.8 - 0.0
21/04:30pm 18.0 9.5 5.2 43 6.2 N 39 57 21 31 1014.0 - 0.0
21/04:02pm 18.1 7.9 5.1 42 6.3 N 48 67 26 36 1014.2 - 0.0
21/04:00pm 18.2 7.6 5.3 42 6.3 N 50 67 27 36 1014.2 1014.1 0.0
21/03:30pm 18.3 11.1 4.8 41 6.5 N 32 54 17 29 1014.9 - 0.0
21/03:23pm 18.3 11.9 5.1 41 6.4 N 28 46 15 25 1015.3 - 0.0
21/03:00pm 18.4 12.3 5.0 41 6.5 NNE 26 32 14 17 1015.8 1015.7 0.0
21/02:30pm 17.6 11.2 5.2 44 6.0 N 28 41 15 22 1015.6 - 0.0
21/02:00pm 17.4 9.7 5.2 44 5.9 N 35 52 19 28 1015.4 1015.3 0.0
21/01:34pm 18.3 9.3 4.8 41 6.5 N 41 59 22 32 1015.7 - 0.0
21/01:30pm 18.9 9.3 4.6 39 6.9 N 44 59 24 32 1015.7 - 0.0
21/01:20pm 18.1 8.1 4.2 39 6.6 N 46 65 25 35 1015.7 - 0.0
21/01:00pm 17.6 7.2 4.1 40 6.4 N 48 61 26 33 1016.0 1015.9 0.0
21/12:30pm 17.4 7.9 4.0 41 6.3 N 43 61 23 33 1016.5 - 0.0
21/12:21pm 17.4 7.9 4.0 41 6.3 N 43 61 23 33 1016.6 - 0.0
21/12:00pm 16.9 8.3 4.7 44 5.8 N 39 56 21 30 1016.9 1016.8 0.0
21/11:30am 16.0 6.4 4.3 45 5.5 N 44 59 24 32 1017.4 - 0.0
21/11:22am 16.3 7.3 4.4 45 5.6 N 41 59 22 32 1017.6 - 0.0
21/11:00am 16.1 7.0 4.1 45 5.6 N 41 52 22 28 1018.2 1018.0 0.0
21/10:30am 15.1 5.7 4.4 48 5.0 N 43 56 23 30 1018.5 - 0.0
21/10:00am 15.2 5.6 4.5 49 5.0 N 44 57 24 31 1018.6 1018.4 0.0
21/09:30am 14.2 4.2 4.2 51 4.6 N 46 61 25 33 1018.8 - 0.0
21/09:00am 13.6 4.1 4.0 52 4.4 N 43 56 23 30 1018.9 1018.7 0.0
21/08:30am 12.7 3.3 4.4 57 3.8 N 43 54 23 29 1019.0 - 0.0
21/08:00am 12.1 3.4 4.1 58 3.6 N 39 50 21 27 1018.6 1018.4 0.0
21/07:30am 11.8 2.7 4.0 59 3.5 N 41 52 22 28 1018.7 - 0.0
21/07:00am 11.5 2.1 4.2 61 3.3 N 43 54 23 29 1018.6 1018.4 0.0
21/06:30am 11.2 2.5 4.3 62 3.1 N 39 56 21 30 1018.4 - 0.0
21/06:00am 11.0 2.4 4.6 64 2.9 N 39 50 21 27 1018.2 1018.0 0.0
21/05:30am 11.3 3.0 4.2 61 3.2 N 37 46 20 25 1018.2 - 0.0
21/05:00am 11.3 3.4 4.2 61 3.2 N 35 44 19 24 1017.9 1017.8 0.0
21/04:30am 11.1 3.2 4.5 64 3.0 N 35 44 19 24 1017.6 - 0.0
21/04:00am 11.3 3.4 4.5 63 3.1 N 35 43 19 23 1017.6 1017.5 0.0
21/03:30am 11.4 4.1 4.6 63 3.1 N 32 39 17 21 1017.7 - 0.0
21/03:00am 11.5 2.9 4.4 61 3.2 N 39 52 21 28 1017.5 1017.4 0.0
21/02:30am 11.8 3.5 4.3 60 3.4 N 37 44 20 24 1017.5 - 0.0
21/02:00am 12.0 4.7 4.3 59 3.5 N 32 39 17 21 1017.5 1017.4 0.0
21/01:30am 12.1 3.9 4.7 60 3.4 N 37 46 20 25 1017.7 - 0.0
21/01:00am 12.4 3.8 4.5 58 3.6 N 39 48 21 26 1017.7 1017.6 0.0
21/12:30am 12.8 5.3 4.5 57 3.8 N 33 44 18 24 1017.9 - 0.0
21/12:00am 13.4 5.5 4.2 53 4.2 N 35 52 19 28 1017.8 1017.7 0.0
 
Date/Time
EST
Tmp

°C
App
Tmp
°C
Dew
Point
°C
Rel
Hum
%
Delta-T

°C
Wind Press
QNH
hPa
Press
MSL
hPa
Rain
since
9 am
mm
Dir
 
Spd
km/h
Gust
km/h
Spd
kts
Gust
kts
20/11:30pm 13.0 6.1 4.8 57 3.8 N 30 37 16 20 1017.9 - 0.0
20/11:00pm 12.5 6.4 4.9 60 3.5 N 26 32 14 17 1018.2 1018.0 0.0
20/10:30pm 12.7 7.0 4.9 59 3.6 N 24 35 13 19 1018.3 - 0.0
20/10:00pm 13.0 6.9 5.0 58 3.7 N 26 35 14 19 1018.5 1018.3 0.0
20/09:30pm 13.0 7.0 5.3 59 3.6 N 26 30 14 16 1018.3 - 0.0
20/09:00pm 13.4 8.2 5.3 58 3.8 N 22 26 12 14 1018.3 1018.1 0.0
20/08:30pm 13.8 8.6 5.3 56 4.0 N 22 26 12 14 1018.3 - 0.0

Latest Capital City Observations: Canberra | Sydney | Melbourne | Brisbane | Adelaide | Perth | Hobart | Darwin

Other Formats:

Comma delimited format used in spreadsheet applications
http://www.bom.gov.au/fwo/IDV60901/IDV60901.94866.axf

JavaScript Object Notation format (JSON) in row-major order
http://www.bom.gov.au/fwo/IDV60901/IDV60901.94866.json